createdAt,value
2023-02-14T00:02:38.689Z,35.03
2023-02-14T00:05:45.590Z,35.76
2023-02-14T00:08:54.363Z,37.28
2023-02-14T00:12:01.166Z,37.23
2023-02-14T00:15:20.105Z,36.23
2023-02-14T00:18:50.180Z,37.25
2023-02-14T00:21:56.588Z,37.49
2023-02-14T00:25:03.943Z,38.42
2023-02-14T00:28:09.801Z,37.41
2023-02-14T00:31:16.482Z,38.14
2023-02-14T00:34:25.633Z,37.14
2023-02-14T00:37:32.461Z,39.10
2023-02-14T00:40:38.198Z,37.95
2023-02-14T00:43:44.757Z,37.47
2023-02-14T00:46:50.642Z,36.62
2023-02-14T00:50:03.012Z,36.40
2023-02-14T00:53:08.866Z,36.86
2023-02-14T00:56:16.439Z,35.21
2023-02-14T00:59:22.422Z,34.59
2023-02-14T01:02:29.053Z,33.97
2023-02-14T01:05:37.501Z,33.83
2023-02-14T01:08:44.449Z,33.79
2023-02-14T01:11:50.227Z,34.56
2023-02-14T01:14:57.024Z,34.64
2023-02-14T01:18:03.622Z,33.70
2023-02-14T01:21:20.952Z,32.52
2023-02-14T01:24:27.707Z,32.44
2023-02-14T01:27:34.333Z,32.69
2023-02-14T01:30:40.254Z,30.58
2023-02-14T01:33:51.990Z,29.80
2023-02-14T01:37:00.421Z,29.40
2023-02-14T01:40:08.807Z,29.72
2023-02-14T01:43:21.902Z,30.89
2023-02-14T01:46:30.795Z,29.61
2023-02-14T01:49:44.108Z,29.12
2023-02-14T01:53:00.798Z,30.26
2023-02-14T01:56:15.678Z,30.85
2023-02-14T01:59:29.463Z,31.28
2023-02-14T02:02:35.262Z,32.35
2023-02-14T02:05:51.402Z,32.37
2023-02-14T02:09:15.252Z,31.80
2023-02-14T02:12:22.292Z,31.55
2023-02-14T02:15:34.305Z,30.12
2023-02-14T02:19:11.368Z,31.82
2023-02-14T02:23:10.332Z,31.16
2023-02-14T02:27:11.547Z,30.97
2023-02-14T02:31:10.832Z,31.56
2023-02-14T02:35:15.192Z,30.45
2023-02-14T02:38:50.104Z,30.01
2023-02-14T02:42:17.872Z,29.76
2023-02-14T02:46:05.067Z,30.98
2023-02-14T02:49:38.941Z,28.99
2023-02-14T02:53:06.459Z,29.47
2023-02-14T02:56:37.812Z,29.87
2023-02-14T02:59:48.941Z,30.53
2023-02-14T03:03:13.344Z,29.53
2023-02-14T03:06:19.125Z,28.00
2023-02-14T03:10:00.433Z,27.06
2023-02-14T03:13:34.602Z,26.75
2023-02-14T03:17:07.908Z,26.67
2023-02-14T03:20:26.240Z,26.70
2023-02-14T03:23:41.936Z,26.94
2023-02-14T03:27:00.168Z,27.10
2023-02-14T03:30:21.373Z,27.40
2023-02-14T03:33:42.113Z,26.92
2023-02-14T03:36:59.326Z,26.48
2023-02-14T03:40:14.017Z,25.73
2023-02-14T03:43:33.826Z,26.19
2023-02-14T03:46:48.718Z,25.77
2023-02-14T03:50:05.248Z,26.03
2023-02-14T03:53:16.263Z,25.81
2023-02-14T03:56:35.344Z,27.01
2023-02-14T03:59:45.885Z,26.55
2023-02-14T04:03:02.947Z,27.71
2023-02-14T04:06:09.580Z,28.26
2023-02-14T04:09:16.401Z,27.55
2023-02-14T04:12:35.941Z,27.84
2023-02-14T04:15:46.980Z,26.48
2023-02-14T04:19:04.992Z,27.18
2023-02-14T04:22:11.564Z,27.06
2023-02-14T04:25:17.905Z,26.67
2023-02-14T04:28:24.583Z,27.55
2023-02-14T04:31:33.260Z,27.90
2023-02-14T04:34:41.027Z,28.13
2023-02-14T04:37:46.859Z,28.56
2023-02-14T04:40:54.145Z,30.15
2023-02-14T04:43:59.918Z,30.73
2023-02-14T04:47:10.607Z,30.04
2023-02-14T04:50:17.624Z,29.49
2023-02-14T04:53:24.659Z,28.62
2023-02-14T04:56:30.595Z,27.91
2023-02-14T04:59:37.478Z,27.97
2023-02-14T05:02:45.816Z,28.03
2023-02-14T05:05:52.489Z,29.49
2023-02-14T05:08:58.600Z,29.00
2023-02-14T05:12:05.377Z,29.21
2023-02-14T05:15:12.703Z,28.71
2023-02-14T05:18:21.999Z,28.53
2023-02-14T05:21:28.651Z,29.74
2023-02-14T05:24:35.332Z,31.01
2023-02-14T05:27:41.133Z,29.84
2023-02-14T05:30:50.139Z,28.92
2023-02-14T05:33:58.546Z,28.61
2023-02-14T05:37:05.371Z,28.95
2023-02-14T05:40:14.065Z,30.04
2023-02-14T05:43:20.612Z,30.62
2023-02-14T05:46:26.351Z,30.41
2023-02-14T05:49:35.486Z,30.23
2023-02-14T05:52:41.690Z,31.20
2023-02-14T05:55:48.312Z,32.79
2023-02-14T05:58:54.036Z,33.67
2023-02-14T06:02:00.625Z,31.59
2023-02-14T06:05:11.853Z,30.28
2023-02-14T06:08:18.489Z,29.74
2023-02-14T06:11:24.309Z,29.21
2023-02-14T06:14:30.931Z,29.00
2023-02-14T06:17:36.809Z,28.71
2023-02-14T06:20:46.040Z,28.92
2023-02-14T06:23:51.826Z,29.41
2023-02-14T06:26:58.386Z,29.87
2023-02-14T06:30:04.830Z,31.92
2023-02-14T06:33:11.560Z,33.20
2023-02-14T06:36:20.398Z,34.70
2023-02-14T06:39:27.192Z,34.34
2023-02-14T06:42:32.973Z,34.36
2023-02-14T06:45:39.586Z,32.99
2023-02-14T06:48:45.806Z,32.12
2023-02-14T06:51:55.121Z,30.59
2023-02-14T06:55:00.962Z,32.45
2023-02-14T06:58:07.849Z,31.95
2023-02-14T07:01:13.755Z,28.12
2023-02-14T07:04:20.725Z,27.11
2023-02-14T07:07:29.266Z,29.63
2023-02-14T07:10:36.014Z,29.66
2023-02-14T07:13:41.841Z,31.15
2023-02-14T07:16:48.538Z,28.11
2023-02-14T07:19:54.269Z,26.97
2023-02-14T07:23:04.721Z,30.16
2023-02-14T07:26:10.814Z,37.21
2023-02-14T07:29:18.671Z,46.65
2023-02-14T07:32:25.911Z,54.07
2023-02-14T07:35:33.239Z,43.91
2023-02-14T07:38:41.722Z,43.49
2023-02-14T07:41:48.330Z,41.24
2023-02-14T07:44:57.712Z,35.45
2023-02-14T07:48:04.796Z,30.96
2023-02-14T07:51:11.355Z,31.33
2023-02-14T07:54:21.226Z,33.16
2023-02-14T08:00:48.290Z,34.08
2023-02-14T08:03:54.540Z,31.54
2023-02-14T08:07:01.195Z,29.85
2023-02-14T08:10:12.990Z,29.43
2023-02-14T08:13:19.926Z,27.13
2023-02-14T08:16:25.856Z,26.89
2023-02-14T08:19:33.504Z,28.49
2023-02-14T08:22:39.336Z,29.33
2023-02-14T08:25:48.708Z,28.59
2023-02-14T08:28:54.628Z,30.27
2023-02-14T08:32:01.937Z,28.12
2023-02-14T08:35:08.152Z,27.04
2023-02-14T08:38:15.039Z,27.48
2023-02-14T08:41:23.530Z,27.49
2023-02-14T08:44:30.407Z,27.16
2023-02-14T08:47:38.656Z,28.87
2023-02-14T08:50:45.897Z,27.83
2023-02-14T08:53:57.052Z,25.43
2023-02-14T08:57:06.861Z,24.62
2023-02-14T09:00:15.359Z,23.73
2023-02-14T09:03:22.787Z,26.23
2023-02-14T09:06:29.849Z,39.63
2023-02-14T09:09:37.543Z,38.10
2023-02-14T09:12:46.265Z,25.98
2023-02-14T09:15:55.441Z,22.50
2023-02-14T09:19:01.409Z,24.88
2023-02-14T09:22:11.216Z,32.14
2023-02-14T09:25:16.998Z,26.92
2023-02-14T09:28:26.159Z,46.56
2023-02-14T09:31:31.995Z,28.47
2023-02-14T09:34:39.380Z,22.20
2023-02-14T09:37:45.107Z,21.87
2023-02-14T09:40:54.725Z,18.78
2023-02-14T09:44:10.218Z,18.76
2023-02-14T09:47:31.998Z,18.08
2023-02-14T09:50:48.924Z,18.43
2023-02-14T09:54:07.121Z,26.47
2023-02-14T09:57:30.727Z,18.09
2023-02-14T10:00:51.831Z,17.48
2023-02-14T10:04:28.639Z,17.28
2023-02-14T10:07:53.281Z,17.84
2023-02-14T10:11:11.685Z,18.38
2023-02-14T10:14:26.230Z,18.44
2023-02-14T10:17:47.165Z,18.37
2023-02-14T10:21:00.772Z,19.83
2023-02-14T10:24:21.050Z,19.59
2023-02-14T10:27:39.771Z,19.00
2023-02-14T10:31:01.670Z,19.14
2023-02-14T10:34:25.464Z,19.25
2023-02-14T10:38:01.022Z,18.91
2023-02-14T10:41:30.177Z,19.81
2023-02-14T10:44:57.276Z,18.26
2023-02-14T10:48:23.295Z,19.03
2023-02-14T10:51:46.923Z,20.12
2023-02-14T10:55:00.108Z,20.83
2023-02-14T10:58:13.019Z,17.97
2023-02-14T11:01:22.606Z,20.07
2023-02-14T11:04:29.143Z,18.41
2023-02-14T11:07:39.845Z,19.50
2023-02-14T11:10:46.138Z,18.30
2023-02-14T11:13:53.656Z,18.68
2023-02-14T11:17:01.937Z,18.24
2023-02-14T11:20:30.668Z,20.68
2023-02-14T11:23:44.104Z,16.39
2023-02-14T11:26:55.732Z,15.15
2023-02-14T11:30:03.264Z,18.48
2023-02-14T11:33:15.732Z,20.39
2023-02-14T11:36:21.808Z,18.20
2023-02-14T11:39:37.106Z,17.25
2023-02-14T11:42:51.646Z,15.47
2023-02-14T11:46:19.190Z,14.51
2023-02-14T11:49:35.050Z,16.63
2023-02-14T11:52:54.992Z,15.28
2023-02-14T11:56:03.914Z,14.59
2023-02-14T11:59:23.574Z,14.27
2023-02-14T12:02:43.562Z,13.41
2023-02-14T12:05:57.429Z,14.10
2023-02-14T12:09:16.249Z,14.52
2023-02-14T12:12:29.160Z,14.93
2023-02-14T12:15:40.893Z,13.83
2023-02-14T12:19:02.501Z,13.63
2023-02-14T12:22:10.345Z,13.27
2023-02-14T12:25:25.698Z,11.85
2023-02-14T12:28:46.068Z,13.83
2023-02-14T12:31:53.501Z,14.35
2023-02-14T12:35:16.276Z,14.94
2023-02-14T12:38:44.787Z,16.11
2023-02-14T12:42:07.954Z,15.73
2023-02-14T12:45:30.276Z,15.59
2023-02-14T12:49:03.278Z,15.74
2023-02-14T12:52:41.389Z,15.64
2023-02-14T12:56:06.712Z,14.82
2023-02-14T12:59:35.304Z,15.27
2023-02-14T13:03:44.202Z,14.88
2023-02-14T13:07:00.490Z,14.79
2023-02-14T13:10:30.155Z,14.26
2023-02-14T13:14:04.565Z,12.60
2023-02-14T13:17:27.418Z,19.36
2023-02-14T13:20:52.454Z,17.33
2023-02-14T13:24:14.099Z,16.46
2023-02-14T13:27:30.391Z,15.87
2023-02-14T13:30:42.258Z,17.11
2023-02-14T13:33:55.600Z,17.75
2023-02-14T13:37:12.554Z,16.89
2023-02-14T13:40:26.762Z,24.84
2023-02-14T13:43:53.131Z,257.70
2023-02-14T13:47:00.054Z,565.91
2023-02-14T13:50:09.480Z,374.12
2023-02-14T13:53:41.896Z,659.35
2023-02-14T13:56:47.768Z,237.50
2023-02-14T14:00:38.316Z,93.24
2023-02-14T14:04:01.957Z,94.08
2023-02-14T14:07:30.180Z,110.45
2023-02-14T14:10:51.853Z,28.44
2023-02-14T14:14:01.972Z,47.77
2023-02-14T14:17:28.388Z,142.93
2023-02-14T14:20:52.667Z,183.03
2023-02-14T14:24:28.284Z,214.45
2023-02-14T14:27:44.956Z,70.36
2023-02-14T14:30:51.895Z,66.12
2023-02-14T14:34:04.287Z,117.85
2023-02-14T14:37:21.353Z,389.82
2023-02-14T14:40:32.188Z,195.26
2023-02-14T14:43:43.856Z,502.99
2023-02-14T14:46:53.931Z,349.14
2023-02-14T14:50:10.864Z,317.02
2023-02-14T14:53:29.406Z,360.15
2023-02-14T14:56:42.362Z,122.07
2023-02-14T14:59:52.219Z,192.82
2023-02-14T15:03:09.761Z,296.67
2023-02-14T15:06:23.137Z,277.19
2023-02-14T15:09:36.384Z,315.76
2023-02-14T15:12:56.542Z,199.33
2023-02-14T15:16:05.778Z,61.11
2023-02-14T15:19:22.567Z,25.12
2023-02-14T15:22:34.000Z,75.84
2023-02-14T15:25:44.759Z,65.94
2023-02-14T15:29:01.306Z,59.46
2023-02-14T15:32:15.439Z,79.64
2023-02-14T15:35:32.104Z,50.34
2023-02-14T15:38:45.206Z,44.71
2023-02-14T15:41:51.154Z,42.21
2023-02-14T15:45:25.604Z,48.72
2023-02-14T15:48:38.016Z,36.00
2023-02-14T15:51:50.533Z,46.81
2023-02-14T15:54:56.454Z,66.28
2023-02-14T15:58:09.894Z,186.10
2023-02-14T16:01:16.929Z,62.20
2023-02-14T16:04:33.277Z,112.16
2023-02-14T16:07:39.203Z,72.27
2023-02-14T16:10:46.270Z,131.31
2023-02-14T16:13:52.084Z,127.48
2023-02-14T16:17:04.822Z,252.11
2023-02-14T16:20:45.472Z,477.63
2023-02-14T16:24:16.018Z,494.62
2023-02-14T16:27:21.863Z,316.00
2023-02-14T16:30:28.927Z,174.61
2023-02-14T16:33:40.111Z,102.09
2023-02-14T16:36:49.656Z,67.63
2023-02-14T16:39:59.567Z,59.85
2023-02-14T16:43:09.507Z,62.19
2023-02-14T16:46:17.709Z,68.25
2023-02-14T16:49:25.591Z,58.01
2023-02-14T16:52:34.486Z,58.64
2023-02-14T16:55:42.701Z,47.59
2023-02-14T16:58:50.380Z,46.71
2023-02-14T17:02:02.872Z,63.20
2023-02-14T17:05:10.131Z,50.54
2023-02-14T17:08:20.720Z,50.89
2023-02-14T17:11:31.080Z,41.91
2023-02-14T17:14:42.729Z,40.27
2023-02-14T17:17:52.204Z,40.43
2023-02-14T17:20:59.435Z,41.97
2023-02-14T17:24:08.819Z,51.67
2023-02-14T17:27:15.564Z,47.66
2023-02-14T17:30:23.343Z,59.82
2023-02-14T17:33:30.693Z,69.35
2023-02-14T17:36:36.887Z,65.19
2023-02-14T17:39:46.268Z,70.47
2023-02-14T17:42:52.206Z,66.83
2023-02-14T17:45:58.880Z,69.29
2023-02-14T17:49:05.480Z,79.04
2023-02-14T17:52:12.322Z,89.92
2023-02-14T17:55:21.041Z,110.80
2023-02-14T17:58:27.754Z,111.40
2023-02-14T18:01:36.375Z,100.14
2023-02-14T18:04:43.205Z,91.57
2023-02-14T18:07:48.960Z,104.38
2023-02-14T18:10:58.977Z,86.63
2023-02-14T18:14:04.980Z,79.02
2023-02-14T18:17:11.848Z,69.53
2023-02-14T18:20:17.687Z,74.74
2023-02-14T18:23:25.003Z,65.93
2023-02-14T18:26:34.683Z,81.13
2023-02-14T18:29:41.608Z,75.13
2023-02-14T18:32:47.995Z,70.79
2023-02-14T18:35:54.564Z,83.84
2023-02-14T18:39:01.185Z,93.23
2023-02-14T18:42:10.468Z,110.64
2023-02-14T18:45:16.405Z,92.29
2023-02-14T18:48:23.146Z,72.16
2023-02-14T18:51:33.502Z,68.06
2023-02-14T18:54:40.539Z,72.00
2023-02-14T18:57:49.052Z,81.93
2023-02-14T19:00:56.679Z,75.30
2023-02-14T19:04:06.206Z,71.41
2023-02-14T19:07:15.715Z,72.02
2023-02-14T19:10:22.070Z,79.41
2023-02-14T19:13:32.483Z,71.98
2023-02-14T19:16:51.263Z,76.85
2023-02-14T19:20:00.097Z,73.16
2023-02-14T19:23:06.668Z,65.94
2023-02-14T19:26:15.169Z,69.17
2023-02-14T19:29:27.455Z,74.04
2023-02-14T19:32:34.105Z,76.57
2023-02-14T19:35:40.393Z,74.13
2023-02-14T19:38:51.351Z,71.85
2023-02-14T19:41:57.151Z,76.28
2023-02-14T19:45:09.950Z,76.06
2023-02-14T19:48:15.928Z,74.81
2023-02-14T19:51:29.073Z,73.48
2023-02-14T19:54:34.995Z,72.74
2023-02-14T19:57:42.493Z,72.63
2023-02-14T20:00:59.629Z,74.41
2023-02-14T20:04:10.332Z,73.87
2023-02-14T20:07:16.893Z,73.67
2023-02-14T20:10:24.003Z,72.44
2023-02-14T20:13:31.384Z,79.42
2023-02-14T20:16:41.688Z,82.65
2023-02-14T20:19:47.585Z,81.00
2023-02-14T20:22:54.139Z,77.46
2023-02-14T20:26:02.923Z,72.46
2023-02-14T20:29:12.828Z,72.18
2023-02-14T20:32:22.018Z,77.16
2023-02-14T20:35:31.774Z,83.31
2023-02-14T20:38:38.541Z,84.82
2023-02-14T20:41:50.210Z,86.27
2023-02-14T20:44:56.200Z,79.58
2023-02-14T20:48:07.262Z,78.23
2023-02-14T20:51:14.994Z,76.74
2023-02-14T20:54:24.723Z,78.27
2023-02-14T20:57:32.420Z,76.23
2023-02-14T21:00:39.470Z,76.80
2023-02-14T21:03:51.228Z,81.96
2023-02-14T21:07:00.399Z,78.63
2023-02-14T21:10:07.417Z,75.92
2023-02-14T21:13:14.155Z,73.22
2023-02-14T21:16:22.850Z,76.06
2023-02-14T21:19:31.996Z,75.92
2023-02-14T21:22:37.942Z,84.10
2023-02-14T21:25:45.084Z,86.59
2023-02-14T21:29:01.141Z,81.74
2023-02-14T21:32:10.418Z,86.16
2023-02-14T21:35:19.345Z,99.18
2023-02-14T21:38:26.507Z,95.88
2023-02-14T21:41:34.696Z,99.24
2023-02-14T21:44:54.366Z,95.91
2023-02-14T21:48:12.540Z,109.99
2023-02-14T21:51:23.115Z,125.50
2023-02-14T21:54:29.037Z,110.14
2023-02-14T21:57:35.878Z,117.59
2023-02-14T22:00:48.260Z,135.88
2023-02-14T22:03:57.028Z,158.66
2023-02-14T22:07:05.564Z,139.87
2023-02-14T22:10:13.972Z,122.86
2023-02-14T22:13:19.775Z,103.95
2023-02-14T22:16:28.546Z,91.65
2023-02-14T22:19:36.930Z,95.65
2023-02-14T22:22:47.363Z,103.08
2023-02-14T22:25:57.525Z,144.35
2023-02-14T22:29:06.137Z,122.28
2023-02-14T22:32:12.054Z,103.62
2023-02-14T22:35:19.166Z,97.17
2023-02-14T22:38:28.258Z,85.94
2023-02-14T22:41:37.880Z,84.19
2023-02-14T22:44:43.908Z,80.90
2023-02-14T22:47:50.533Z,83.20
2023-02-14T22:50:56.266Z,84.15
2023-02-14T22:54:08.631Z,94.42
2023-02-14T22:57:17.032Z,35.11
2023-02-14T23:00:25.051Z,62.37
2023-02-14T23:03:31.099Z,59.22
2023-02-14T23:06:40.286Z,58.58
2023-02-14T23:09:48.672Z,56.84
2023-02-14T23:13:07.816Z,60.71
2023-02-14T23:16:25.962Z,61.21
2023-02-14T23:19:49.327Z,60.74
2023-02-14T23:22:54.999Z,72.23
2023-02-14T23:26:04.334Z,85.94
2023-02-14T23:29:10.108Z,92.76
2023-02-14T23:32:17.619Z,83.39
2023-02-14T23:35:23.399Z,82.31
2023-02-14T23:38:29.974Z,74.24
2023-02-14T23:41:50.373Z,97.86
2023-02-14T23:45:17.004Z,60.91
2023-02-14T23:48:22.798Z,85.37
2023-02-14T23:51:29.367Z,91.43
2023-02-14T23:54:35.842Z,104.18
2023-02-14T23:57:44.959Z,94.29
